Time;durP1;ratioP1;P1;durP2;ratioP2;P2;SDS_P1;SDS_P2;PMS_P1;PMS_P2;Temp;Humidity;BMP_temperature;BMP_pressure;BME280_temperature;BME280_humidity;BME280_pressure;Samples;Min_cycle;Max_cycle;Signal;HPM_P1;HPM_P2
2021/04/07 00:00:41;;;;;;;9.60;3.43;;;;;;;;;;5053076;28;20428;-71
2021/04/07 00:03:08;;;;;;;4.57;3.17;;;;;;;;;;5051951;28;20741;-71
2021/04/07 00:05:38;;;;;;;5.47;3.53;;;;;;;;;;5051467;28;20476;-71
2021/04/07 00:08:05;;;;;;;3.23;2.70;;;;;;;;;;5052322;28;20407;-71
2021/04/07 00:10:32;;;;;;;5.10;3.00;;;;;;;;;;5053051;28;20429;-71
2021/04/07 00:12:58;;;;;;;3.17;2.67;;;;;;;;;;5052872;28;20384;-71
2021/04/07 00:15:25;;;;;;;4.90;2.77;;;;;;;;;;5053106;28;20401;-71
2021/04/07 00:17:52;;;;;;;4.17;3.23;;;;;;;;;;5052293;28;20546;-71
2021/04/07 00:20:23;;;;;;;4.00;2.47;;;;;;;;;;5053031;28;20400;-72
2021/04/07 00:22:49;;;;;;;3.67;2.80;;;;;;;;;;5053166;28;20394;-71
2021/04/07 00:25:16;;;;;;;8.73;3.30;;;;;;;;;;5070297;28;20836;-72
2021/04/07 00:27:44;;;;;;;6.53;2.97;;;;;;;;;;5073324;28;20402;-72
2021/04/07 00:30:11;;;;;;;6.70;3.00;;;;;;;;;;5053676;28;20813;-72
2021/04/07 00:32:37;;;;;;;7.10;3.17;;;;;;;;;;5053396;28;20500;-72
2021/04/07 00:35:03;;;;;;;4.37;3.13;;;;;;;;;;5068308;28;20909;-72
2021/04/07 00:37:29;;;;;;;7.80;3.50;;;;;;;;;;5066791;28;20424;-72
2021/04/07 00:39:55;;;;;;;4.43;3.40;;;;;;;;;;5052068;28;20536;-72
2021/04/07 00:42:21;;;;;;;3.30;2.90;;;;;;;;;;5052958;28;20432;-73
2021/04/07 00:44:47;;;;;;;3.50;2.93;;;;;;;;;;5051719;28;20464;-72
2021/04/07 00:47:16;;;;;;;4.63;2.87;;;;;;;;;;5038021;28;20406;-72
2021/04/07 00:49:42;;;;;;;4.63;2.90;;;;;;;;;;5067960;28;20513;-72
2021/04/07 00:52:08;;;;;;;7.33;3.87;;;;;;;;;;5076249;28;20432;-72
2021/04/07 00:54:34;;;;;;;4.33;3.20;;;;;;;;;;5072146;28;20443;-72
2021/04/07 00:57:01;;;;;;;6.83;3.00;;;;;;;;;;5076988;28;20414;-72
2021/04/07 00:59:27;;;;;;;6.73;2.97;;;;;;;;;;5068597;28;20830;-71
2021/04/07 01:01:54;;;;;;;5.43;2.97;;;;;;;;;;5056210;28;20428;-71
2021/04/07 01:04:20;;;;;;;5.60;3.43;;;;;;;;;;5055423;28;20424;-71
2021/04/07 01:06:47;;;;;;;4.37;3.07;;;;;;;;;;5056630;28;20503;-71
2021/04/07 01:09:13;;;;;;;5.17;3.10;;;;;;;;;;5055302;28;20476;-71
2021/04/07 01:11:39;;;;;;;6.00;3.63;;;;;;;;;;5055932;28;20551;-71
2021/04/07 01:14:05;;;;;;;5.77;3.00;;;;;;;;;;5056936;28;20468;-72
2021/04/07 01:16:32;;;;;;;6.77;3.40;;;;;;;;;;5076297;28;20503;-72
2021/04/07 01:18:58;;;;;;;3.93;3.40;;;;;;;;;;5076140;28;20589;-72
2021/04/07 01:21:24;;;;;;;4.50;3.33;;;;;;;;;;5070752;28;20456;-72
2021/04/07 01:23:51;;;;;;;5.17;3.40;;;;;;;;;;5057974;28;20464;-72
2021/04/07 01:26:17;;;;;;;5.67;4.03;;;;;;;;;;5070992;28;20437;-72
2021/04/07 01:28:43;;;;;;;4.53;3.20;;;;;;;;;;5075982;28;20413;-72
2021/04/07 01:31:09;;;;;;;6.70;3.93;;;;;;;;;;5064379;28;20485;-72
2021/04/07 01:33:36;;;;;;;3.67;3.03;;;;;;;;;;5055922;28;20502;-72
2021/04/07 01:36:02;;;;;;;6.00;4.13;;;;;;;;;;5055206;28;20429;-72
2021/04/07 01:38:28;;;;;;;5.47;3.33;;;;;;;;;;5056004;28;20536;-72
2021/04/07 01:40:57;;;;;;;8.03;3.90;;;;;;;;;;5054794;28;20934;-72
2021/04/07 01:43:24;;;;;;;5.10;3.90;;;;;;;;;;5055517;28;20489;-72
2021/04/07 01:45:50;;;;;;;4.67;3.70;;;;;;;;;;5054142;28;20421;-72
2021/04/07 01:48:17;;;;;;;5.97;3.57;;;;;;;;;;5055400;28;20407;-72
2021/04/07 01:50:45;;;;;;;3.50;3.17;;;;;;;;;;5054403;28;20453;-72
2021/04/07 01:53:11;;;;;;;6.20;3.50;;;;;;;;;;5055402;28;20600;-72
2021/04/07 01:55:38;;;;;;;5.97;3.00;;;;;;;;;;5057849;28;20432;-72
2021/04/07 01:58:04;;;;;;;10.53;3.30;;;;;;;;;;5075068;28;20543;-72
2021/04/07 02:00:30;;;;;;;6.37;3.67;;;;;;;;;;5070687;28;20907;-72
2021/04/07 02:02:56;;;;;;;8.10;3.73;;;;;;;;;;5055027;28;20498;-72
2021/04/07 02:05:22;;;;;;;4.33;3.83;;;;;;;;;;5054590;28;20571;-72
2021/04/07 02:07:48;;;;;;;4.87;3.80;;;;;;;;;;5036932;28;20407;-72
2021/04/07 02:10:14;;;;;;;4.07;3.67;;;;;;;;;;5053790;28;20412;-72
2021/04/07 02:12:41;;;;;;;4.30;3.60;;;;;;;;;;5054231;28;20435;-72
2021/04/07 02:15:10;;;;;;;4.40;3.40;;;;;;;;;;5055046;28;20399;-72
2021/04/07 02:17:36;;;;;;;5.30;3.40;;;;;;;;;;5054312;28;20436;-72
2021/04/07 02:20:02;;;;;;;6.43;3.63;;;;;;;;;;5054923;28;20769;-72
2021/04/07 02:22:28;;;;;;;4.80;3.60;;;;;;;;;;5053839;28;20525;-72
2021/04/07 02:24:54;;;;;;;6.07;4.00;;;;;;;;;;5054880;28;20415;-71
2021/04/07 02:27:21;;;;;;;6.43;3.80;;;;;;;;;;5019858;28;20435;-72
2021/04/07 02:29:49;;;;;;;4.50;3.33;;;;;;;;;;5034920;28;20408;-72
2021/04/07 02:32:15;;;;;;;3.90;3.20;;;;;;;;;;5049828;28;20467;-72
2021/04/07 02:34:42;;;;;;;7.43;3.50;;;;;;;;;;5036610;28;20416;-72
2021/04/07 02:37:09;;;;;;;4.30;3.40;;;;;;;;;;5053288;28;20431;-72
2021/04/07 02:39:35;;;;;;;6.20;3.33;;;;;;;;;;5036562;28;20451;-72
2021/04/07 02:42:01;;;;;;;4.00;3.33;;;;;;;;;;5053686;28;20504;-72
2021/04/07 02:44:27;;;;;;;4.43;3.83;;;;;;;;;;5054878;28;20865;-72
2021/04/07 02:46:53;;;;;;;5.20;2.97;;;;;;;;;;5034948;28;20847;-72
2021/04/07 02:49:19;;;;;;;4.13;3.73;;;;;;;;;;5054755;28;20403;-72
2021/04/07 02:51:46;;;;;;;9.07;3.67;;;;;;;;;;5053255;28;20825;-72
2021/04/07 02:54:12;;;;;;;4.40;3.80;;;;;;;;;;5054538;28;20404;-72
2021/04/07 02:56:38;;;;;;;6.60;3.90;;;;;;;;;;5054330;28;20434;-72
2021/04/07 02:59:04;;;;;;;3.90;3.50;;;;;;;;;;5053564;28;20969;-72
2021/04/07 03:01:31;;;;;;;11.00;4.23;;;;;;;;;;5053368;28;20872;-72
2021/04/07 03:03:57;;;;;;;4.20;3.30;;;;;;;;;;5053852;28;20417;-72
2021/04/07 03:06:23;;;;;;;4.90;3.63;;;;;;;;;;5053089;28;20431;-72
2021/04/07 03:08:51;;;;;;;5.87;3.90;;;;;;;;;;5053456;28;20405;-71
2021/04/07 03:11:17;;;;;;;4.20;3.60;;;;;;;;;;5052692;28;20463;-71
2021/04/07 03:13:43;;;;;;;5.10;4.00;;;;;;;;;;5054085;28;20528;-72
2021/04/07 03:16:09;;;;;;;4.37;3.30;;;;;;;;;;5053437;28;20436;-72
2021/04/07 03:18:36;;;;;;;6.20;3.30;;;;;;;;;;5054278;28;20935;-72
2021/04/07 03:21:02;;;;;;;4.37;3.67;;;;;;;;;;5051696;28;20890;-72
2021/04/07 03:23:28;;;;;;;4.93;3.23;;;;;;;;;;5053841;28;20758;-72
2021/04/07 03:25:54;;;;;;;3.57;3.27;;;;;;;;;;5052654;28;20485;-72
2021/04/07 03:28:20;;;;;;;6.33;3.00;;;;;;;;;;5053661;28;20442;-72
2021/04/07 03:30:52;;;;;;;3.90;3.17;;;;;;;;;;5053071;28;20423;-71
2021/04/07 03:33:19;;;;;;;4.70;3.03;;;;;;;;;;5073564;28;20380;-72
2021/04/07 03:35:45;;;;;;;5.23;3.43;;;;;;;;;;5071386;28;20406;-71
2021/04/07 03:38:11;;;;;;;5.00;3.00;;;;;;;;;;5053177;28;20451;-71
2021/04/07 03:40:38;;;;;;;6.77;3.50;;;;;;;;;;5053166;28;20473;-71
2021/04/07 03:43:18;;;;;;;4.00;3.10;;;;;;;;;;5051707;28;20799;-71
2021/04/07 03:45:48;;;;;;;6.00;3.83;;;;;;;;;;5035020;28;20500;-72
2021/04/07 03:48:18;;;;;;;3.43;2.93;;;;;;;;;;5033911;28;20418;-71
2021/04/07 03:50:45;;;;;;;6.03;3.50;;;;;;;;;;5033148;28;20477;-71
2021/04/07 03:53:11;;;;;;;3.67;2.80;;;;;;;;;;5036336;28;20467;-71
2021/04/07 03:55:39;;;;;;;3.03;2.67;;;;;;;;;;5036179;28;20420;-72
2021/04/07 03:58:05;;;;;;;4.40;3.10;;;;;;;;;;5052705;28;20467;-71
2021/04/07 04:00:31;;;;;;;5.30;3.20;;;;;;;;;;5054238;28;20799;-71
2021/04/07 04:02:57;;;;;;;3.50;3.20;;;;;;;;;;5053058;28;20430;-71
2021/04/07 04:05:23;;;;;;;4.17;3.00;;;;;;;;;;5053815;28;20404;-71
2021/04/07 04:07:49;;;;;;;2.87;2.60;;;;;;;;;;5063652;28;20790;-71
2021/04/07 04:10:16;;;;;;;3.87;3.00;;;;;;;;;;5074237;28;20473;-71
2021/04/07 04:12:42;;;;;;;4.33;3.37;;;;;;;;;;5054841;28;20770;-72
2021/04/07 04:15:12;;;;;;;4.37;3.60;;;;;;;;;;5073721;28;20395;-72
2021/04/07 04:17:38;;;;;;;3.70;3.00;;;;;;;;;;5071682;28;20449;-72
2021/04/07 04:20:05;;;;;;;5.20;3.40;;;;;;;;;;5073758;28;20956;-72
2021/04/07 04:22:31;;;;;;;6.33;3.97;;;;;;;;;;5057826;28;20819;-72
2021/04/07 04:24:57;;;;;;;4.53;3.53;;;;;;;;;;5077382;28;20394;-72
2021/04/07 04:27:24;;;;;;;7.60;3.40;;;;;;;;;;5074790;28;20422;-72
2021/04/07 04:29:50;;;;;;;5.00;3.60;;;;;;;;;;5077275;28;20495;-72
2021/04/07 04:32:16;;;;;;;6.60;3.23;;;;;;;;;;5070680;28;20446;-73
2021/04/07 04:34:42;;;;;;;5.60;3.23;;;;;;;;;;5057349;28;20439;-72
2021/04/07 04:37:08;;;;;;;5.30;3.43;;;;;;;;;;5055963;28;20477;-72
2021/04/07 04:39:34;;;;;;;3.67;3.20;;;;;;;;;;5056771;28;20486;-72
2021/04/07 04:42:00;;;;;;;3.87;3.37;;;;;;;;;;5062504;28;20486;-72
2021/04/07 04:44:26;;;;;;;6.13;3.40;;;;;;;;;;5076722;28;20448;-72
2021/04/07 04:46:52;;;;;;;5.27;3.53;;;;;;;;;;5069789;28;20484;-72
2021/04/07 04:49:18;;;;;;;3.60;2.70;;;;;;;;;;5057018;28;20407;-72
2021/04/07 04:51:44;;;;;;;5.37;3.90;;;;;;;;;;5055554;28;20453;-72
2021/04/07 04:54:10;;;;;;;4.87;3.70;;;;;;;;;;5056849;28;20406;-72
2021/04/07 04:56:39;;;;;;;5.40;3.90;;;;;;;;;;5055517;28;20425;-72
2021/04/07 04:59:05;;;;;;;5.60;3.90;;;;;;;;;;5056292;28;20488;-72
2021/04/07 05:01:31;;;;;;;7.07;3.60;;;;;;;;;;5055416;28;20498;-72
2021/04/07 05:03:58;;;;;;;4.70;3.40;;;;;;;;;;5039145;28;20408;-72
2021/04/07 05:06:24;;;;;;;4.30;3.50;;;;;;;;;;5055783;28;20437;-72
2021/04/07 05:08:50;;;;;;;9.83;5.07;;;;;;;;;;5055384;28;20414;-72
2021/04/07 05:11:16;;;;;;;6.00;3.17;;;;;;;;;;5055501;28;20468;-72
2021/04/07 05:13:42;;;;;;;4.83;3.50;;;;;;;;;;5056449;28;20405;-72
2021/04/07 05:16:08;;;;;;;6.17;3.60;;;;;;;;;;5056876;28;20410;-72
2021/04/07 05:18:34;;;;;;;6.10;3.90;;;;;;;;;;5055829;28;20551;-72
2021/04/07 05:21:00;;;;;;;4.67;3.80;;;;;;;;;;5056975;28;20430;-73
2021/04/07 05:23:26;;;;;;;4.87;4.00;;;;;;;;;;5035016;28;20431;-72
2021/04/07 05:25:52;;;;;;;6.70;4.60;;;;;;;;;;5036854;28;20488;-72
2021/04/07 05:28:19;;;;;;;4.40;3.80;;;;;;;;;;5051603;28;20981;-72
2021/04/07 05:31:01;;;;;;;7.13;4.63;;;;;;;;;;5056406;28;20524;-72
2021/04/07 05:33:30;;;;;;;4.80;4.03;;;;;;;;;;5055387;28;20434;-72
2021/04/07 05:35:57;;;;;;;6.63;4.73;;;;;;;;;;5055466;28;20441;-73
2021/04/07 05:38:23;;;;;;;5.33;4.50;;;;;;;;;;5055145;28;20455;-73
2021/04/07 05:40:50;;;;;;;6.53;5.07;;;;;;;;;;5056148;28;20472;-72
2021/04/07 05:43:16;;;;;;;6.00;3.50;;;;;;;;;;5034158;28;20426;-72
2021/04/07 05:45:42;;;;;;;9.00;4.87;;;;;;;;;;5036150;28;20415;-72
2021/04/07 05:48:08;;;;;;;7.40;4.90;;;;;;;;;;5049764;28;20587;-72
2021/04/07 05:50:42;;;;;;;6.43;4.13;;;;;;;;;;5056257;28;20432;-72
2021/04/07 05:53:08;;;;;;;4.97;4.03;;;;;;;;;;5055612;28;20444;-72
2021/04/07 05:55:34;;;;;;;4.80;3.83;;;;;;;;;;5055939;28;20914;-72
2021/04/07 05:58:01;;;;;;;5.10;4.40;;;;;;;;;;5055663;28;20777;-71
2021/04/07 06:00:28;;;;;;;5.90;3.83;;;;;;;;;;5056631;28;20407;-71
2021/04/07 06:02:57;;;;;;;5.27;3.77;;;;;;;;;;5065560;28;20428;-71
2021/04/07 06:05:24;;;;;;;5.93;4.27;;;;;;;;;;5076449;28;20934;-71
2021/04/07 06:07:50;;;;;;;5.93;3.30;;;;;;;;;;5064055;28;20515;-71
2021/04/07 06:10:17;;;;;;;4.80;3.70;;;;;;;;;;5055154;28;20500;-71
2021/04/07 06:12:43;;;;;;;5.30;3.60;;;;;;;;;;5054119;28;20435;-71
2021/04/07 06:15:13;;;;;;;5.67;4.27;;;;;;;;;;5053762;28;20424;-70
2021/04/07 06:17:40;;;;;;;6.63;3.90;;;;;;;;;;5052992;28;20429;-72
2021/04/07 06:20:10;;;;;;;7.53;4.60;;;;;;;;;;5055085;28;20467;-72
2021/04/07 06:22:37;;;;;;;9.90;5.20;;;;;;;;;;5053761;28;20468;-72
2021/04/07 06:25:04;;;;;;;6.80;4.90;;;;;;;;;;5054834;28;20410;-72
2021/04/07 06:27:30;;;;;;;8.50;5.40;;;;;;;;;;5053727;28;20910;-72
2021/04/07 06:30:00;;;;;;;8.10;5.10;;;;;;;;;;5055482;28;20397;-72
2021/04/07 06:32:26;;;;;;;9.60;5.97;;;;;;;;;;5054681;28;20644;-72
2021/04/07 06:34:52;;;;;;;5.20;4.07;;;;;;;;;;5055033;28;20412;-72
2021/04/07 06:37:18;;;;;;;5.37;4.40;;;;;;;;;;5053940;28;20427;-72
2021/04/07 06:39:44;;;;;;;6.07;4.50;;;;;;;;;;5054490;28;20947;-72
2021/04/07 06:42:10;;;;;;;6.00;3.90;;;;;;;;;;5053245;28;20458;-72
2021/04/07 06:44:36;;;;;;;7.00;4.73;;;;;;;;;;5053784;28;20446;-72
2021/04/07 06:47:04;;;;;;;6.70;4.73;;;;;;;;;;5053510;28;20414;-72
2021/04/07 06:49:30;;;;;;;8.30;5.23;;;;;;;;;;5053551;28;20441;-72
2021/04/07 06:51:57;;;;;;;6.10;4.10;;;;;;;;;;5053169;28;20946;-71
2021/04/07 06:54:24;;;;;;;5.33;4.07;;;;;;;;;;5054189;28;20419;-71
2021/04/07 06:56:50;;;;;;;5.47;3.80;;;;;;;;;;5053680;28;20408;-71
2021/04/07 06:59:16;;;;;;;5.80;3.40;;;;;;;;;;5053394;28;20475;-71
2021/04/07 07:01:42;;;;;;;9.50;5.00;;;;;;;;;;5053700;28;20423;-71
2021/04/07 07:04:08;;;;;;;6.70;4.70;;;;;;;;;;5052972;28;20433;-71
2021/04/07 07:06:34;;;;;;;6.37;4.93;;;;;;;;;;5054105;28;20424;-71
2021/04/07 07:09:11;;;;;;;7.90;4.10;;;;;;;;;;5069332;28;20429;-72
2021/04/07 07:11:39;;;;;;;5.30;3.73;;;;;;;;;;5073596;28;20488;-72
2021/04/07 07:14:05;;;;;;;5.20;3.30;;;;;;;;;;5051786;28;20433;-72
2021/04/07 07:16:31;;;;;;;5.90;3.47;;;;;;;;;;5049763;28;20429;-72
2021/04/07 07:18:57;;;;;;;4.70;3.83;;;;;;;;;;5048477;28;20869;-71
2021/04/07 07:21:25;;;;;;;5.90;3.93;;;;;;;;;;5044690;28;20468;-72
2021/04/07 07:23:51;;;;;;;5.73;4.57;;;;;;;;;;5028515;28;20433;-72
2021/04/07 07:26:18;;;;;;;7.20;4.23;;;;;;;;;;5044645;28;20423;-71
2021/04/07 07:28:53;;;;;;;7.47;4.20;;;;;;;;;;5048043;28;20426;-71
2021/04/07 07:31:30;;;;;;;5.30;3.90;;;;;;;;;;5049169;28;20477;-71
2021/04/07 07:33:59;;;;;;;8.07;4.30;;;;;;;;;;5047496;28;20434;-68
2021/04/07 07:36:27;;;;;;;4.67;3.90;;;;;;;;;;5048391;28;20455;-70
2021/04/07 07:38:54;;;;;;;4.20;3.50;;;;;;;;;;5048690;28;20530;-71
2021/04/07 07:41:30;;;;;;;4.67;3.43;;;;;;;;;;5050332;28;20443;-71
2021/04/07 07:43:56;;;;;;;8.80;4.90;;;;;;;;;;5051511;28;20450;-71
2021/04/07 07:46:25;;;;;;;5.40;3.60;;;;;;;;;;5049957;28;20776;-71
2021/04/07 07:48:52;;;;;;;4.50;3.63;;;;;;;;;;5030379;28;20819;-71
2021/04/07 07:51:22;;;;;;;6.67;3.80;;;;;;;;;;5052653;28;20510;-71
2021/04/07 07:53:49;;;;;;;4.37;3.57;;;;;;;;;;5049415;28;20829;-70
2021/04/07 07:56:16;;;;;;;6.53;4.40;;;;;;;;;;5054534;28;20493;-70
2021/04/07 07:58:48;;;;;;;5.45;3.70;;;;;;;;;;5053044;28;20439;-71
2021/04/07 08:01:15;;;;;;;7.40;3.77;;;;;;;;;;5037065;28;20238;-68
2021/04/07 08:03:41;;;;;;;6.83;4.23;;;;;;;;;;5059925;28;20432;-69
2021/04/07 08:06:08;;;;;;;5.50;3.50;;;;;;;;;;5055429;28;20439;-68
2021/04/07 08:08:34;;;;;;;4.30;3.13;;;;;;;;;;5059629;28;20428;-69
2021/04/07 08:11:02;;;;;;;5.90;3.97;;;;;;;;;;5053019;28;20507;-69
2021/04/07 08:13:30;;;;;;;6.77;3.90;;;;;;;;;;5054874;28;20426;-70
2021/04/07 08:15:57;;;;;;;5.60;4.10;;;;;;;;;;5055309;28;20512;-70
2021/04/07 08:18:25;;;;;;;11.37;3.90;;;;;;;;;;5053083;28;20495;-68
2021/04/07 08:20:52;;;;;;;5.83;4.10;;;;;;;;;;5055137;28;20429;-68
2021/04/07 08:23:18;;;;;;;8.40;5.00;;;;;;;;;;5053077;28;20428;-71
2021/04/07 08:25:48;;;;;;;6.60;4.60;;;;;;;;;;5055402;28;20176;-71
2021/04/07 08:28:17;;;;;;;7.47;4.07;;;;;;;;;;5053091;28;20438;-68
2021/04/07 08:30:43;;;;;;;5.00;3.83;;;;;;;;;;5051398;28;20474;-69
2021/04/07 08:33:09;;;;;;;7.43;4.70;;;;;;;;;;5053183;28;20435;-70
2021/04/07 08:35:35;;;;;;;8.73;3.77;;;;;;;;;;5055952;28;20417;-72
2021/04/07 08:38:04;;;;;;;4.30;3.37;;;;;;;;;;5057918;28;20435;-71
2021/04/07 08:40:40;;;;;;;6.13;3.50;;;;;;;;;;5055117;28;20448;-72
2021/04/07 08:43:08;;;;;;;10.07;4.60;;;;;;;;;;5054080;28;20340;-71
2021/04/07 08:45:52;;;;;;;5.13;3.83;;;;;;;;;;5050449;28;20939;-66
2021/04/07 08:48:19;;;;;;;5.03;3.95;;;;;;;;;;5049928;28;20477;-68
2021/04/07 08:50:46;;;;;;;6.00;4.47;;;;;;;;;;5055812;28;20678;-69
2021/04/07 08:53:15;;;;;;;8.63;3.67;;;;;;;;;;5053401;28;20424;-71
2021/04/07 08:55:42;;;;;;;6.32;3.92;;;;;;;;;;5037844;28;20510;-67
2021/04/07 08:58:09;;;;;;;6.80;3.60;;;;;;;;;;5053653;28;20177;-70
2021/04/07 09:00:37;;;;;;;5.63;3.33;;;;;;;;;;5050918;28;20459;-71
2021/04/07 09:03:17;;;;;;;5.80;3.73;;;;;;;;;;5051678;28;20309;-69
2021/04/07 09:05:44;;;;;;;5.85;3.80;;;;;;;;;;5051946;28;20420;-69
2021/04/07 09:08:14;;;;;;;4.93;3.70;;;;;;;;;;5046036;28;20177;-71
2021/04/07 09:10:43;;;;;;;5.67;3.47;;;;;;;;;;5033012;28;20452;-67
2021/04/07 09:13:13;;;;;;;5.10;3.50;;;;;;;;;;5046305;28;22000;-70
2021/04/07 09:15:46;;;;;;;4.60;2.30;;;;;;;;;;5050359;28;20638;-67
2021/04/07 09:18:12;;;;;;;3.33;2.00;;;;;;;;;;5050584;28;20458;-70
2021/04/07 09:20:53;;;;;;;3.53;2.10;;;;;;;;;;5028717;28;20932;-68
2021/04/07 09:23:24;;;;;;;3.90;2.40;;;;;;;;;;5046421;28;21140;-70
2021/04/07 09:26:17;;;;;;;5.40;3.03;;;;;;;;;;5053451;28;20770;-68
2021/04/07 09:28:43;;;;;;;5.00;2.50;;;;;;;;;;5052827;28;20779;-72
2021/04/07 09:31:09;;;;;;;4.10;3.07;;;;;;;;;;5052242;28;20446;-70
2021/04/07 09:33:45;;;;;;;7.10;2.95;;;;;;;;;;5029443;28;20493;-73
2021/04/07 09:36:12;;;;;;;4.93;2.70;;;;;;;;;;5046574;28;20424;-68
2021/04/07 09:38:42;;;;;;;7.40;2.90;;;;;;;;;;5050360;28;21192;-69
2021/04/07 09:41:10;;;;;;;3.10;2.50;;;;;;;;;;5054542;28;20205;-71
2021/04/07 09:43:36;;;;;;;5.10;2.20;;;;;;;;;;5052803;28;20437;-74
2021/04/07 09:46:03;;;;;;;3.00;1.90;;;;;;;;;;5048814;28;20430;-71
2021/04/07 09:48:35;;;;;;;2.20;1.75;;;;;;;;;;5050296;28;20392;-73
2021/04/07 09:51:01;;;;;;;3.97;2.30;;;;;;;;;;5048783;28;20199;-74
2021/04/07 09:53:28;;;;;;;4.03;2.37;;;;;;;;;;5049076;28;20931;-73
2021/04/07 09:56:00;;;;;;;9.43;3.23;;;;;;;;;;5051828;28;20797;-72
2021/04/07 09:58:26;;;;;;;2.60;2.33;;;;;;;;;;5051450;28;20866;-72
2021/04/07 10:00:55;;;;;;;3.20;2.00;;;;;;;;;;5044929;28;20435;-72
2021/04/07 10:03:21;;;;;;;4.47;2.63;;;;;;;;;;5049374;28;20785;-72
2021/04/07 10:05:48;;;;;;;4.17;2.63;;;;;;;;;;5050545;28;20419;-72
2021/04/07 10:08:23;;;;;;;4.73;2.37;;;;;;;;;;5048813;28;20431;-71
2021/04/07 10:10:49;;;;;;;2.47;2.00;;;;;;;;;;5049197;28;20506;-70
2021/04/07 10:13:16;;;;;;;2.93;2.10;;;;;;;;;;5043492;28;20497;-70
2021/04/07 10:15:42;;;;;;;2.83;2.30;;;;;;;;;;5052181;28;20427;-71
2021/04/07 10:18:10;;;;;;;4.50;2.33;;;;;;;;;;5049607;28;20441;-72
2021/04/07 10:20:36;;;;;;;4.90;2.10;;;;;;;;;;5032911;28;20437;-72
2021/04/07 10:23:10;;;;;;;3.27;2.30;;;;;;;;;;5052502;28;20406;-72
2021/04/07 10:25:36;;;;;;;6.17;3.27;;;;;;;;;;5056608;28;20855;-73
2021/04/07 10:28:03;;;;;;;10.17;3.47;;;;;;;;;;5051203;28;20417;-71
2021/04/07 10:30:35;;;;;;;4.30;2.67;;;;;;;;;;5046225;28;20416;-72
2021/04/07 10:33:03;;;;;;;5.90;2.23;;;;;;;;;;5050509;28;20443;-72
2021/04/07 10:35:31;;;;;;;6.20;2.77;;;;;;;;;;5032745;28;20778;-71
2021/04/07 10:38:02;;;;;;;4.13;2.60;;;;;;;;;;5046689;28;20531;-72
2021/04/07 10:40:30;;;;;;;3.90;2.97;;;;;;;;;;5050482;28;20481;-74
2021/04/07 10:42:56;;;;;;;5.53;3.27;;;;;;;;;;5047997;28;20935;-74
2021/04/07 10:45:24;;;;;;;6.50;4.00;;;;;;;;;;5052393;28;20911;-74
2021/04/07 10:47:50;;;;;;;6.20;3.27;;;;;;;;;;5032696;28;20427;-74
2021/04/07 10:50:17;;;;;;;7.03;4.90;;;;;;;;;;5053408;28;20431;-74
2021/04/07 10:52:47;;;;;;;8.67;4.40;;;;;;;;;;5052674;28;20504;-74
2021/04/07 10:55:26;;;;;;;8.40;3.40;;;;;;;;;;5051241;28;20407;-73
2021/04/07 10:57:53;;;;;;;6.53;3.03;;;;;;;;;;5050977;28;20450;-72
2021/04/07 11:00:19;;;;;;;6.70;3.60;;;;;;;;;;5052022;28;20455;-71
2021/04/07 11:02:47;;;;;;;9.10;3.50;;;;;;;;;;5051900;28;20838;-73
2021/04/07 11:05:15;;;;;;;4.67;2.87;;;;;;;;;;5035186;28;20418;-73
2021/04/07 11:07:41;;;;;;;3.97;2.77;;;;;;;;;;5051453;28;20420;-75
2021/04/07 11:10:10;;;;;;;4.90;3.53;;;;;;;;;;5051603;28;20411;-74
2021/04/07 11:12:37;;;;;;;6.53;3.00;;;;;;;;;;5051367;28;20838;-73
2021/04/07 11:15:04;;;;;;;9.13;3.33;;;;;;;;;;5052037;28;20412;-71
2021/04/07 11:17:30;;;;;;;5.63;2.90;;;;;;;;;;5050814;28;20424;-70
2021/04/07 11:19:56;;;;;;;3.30;2.47;;;;;;;;;;5052588;28;20455;-70
2021/04/07 11:22:22;;;;;;;3.77;2.63;;;;;;;;;;5050573;28;20441;-71
2021/04/07 11:24:48;;;;;;;5.07;1.93;;;;;;;;;;5052655;28;20426;-71
2021/04/07 11:27:14;;;;;;;4.30;1.80;;;;;;;;;;5051447;28;20480;-71
2021/04/07 11:29:41;;;;;;;3.20;1.50;;;;;;;;;;5051449;28;20845;-72
2021/04/07 11:32:08;;;;;;;3.13;1.70;;;;;;;;;;5052225;28;20447;-73
2021/04/07 11:34:43;;;;;;;2.67;1.60;;;;;;;;;;5051158;28;20424;-72
2021/04/07 11:37:14;;;;;;;2.43;1.50;;;;;;;;;;5052393;28;20416;-72
2021/04/07 11:43:03;;;;;;;2.90;1.63;;;;;;;;;;5038004;28;20814;-76
2021/04/07 11:45:06;;;;;;;3.20;1.90;;;;;;;;;;5045912;28;20407;-73
2021/04/07 11:47:32;;;;;;;2.80;1.47;;;;;;;;;;5050770;28;20773;-73
2021/04/07 11:49:58;;;;;;;2.50;1.80;;;;;;;;;;5051954;28;20982;-73
2021/04/07 11:52:28;;;;;;;3.90;1.63;;;;;;;;;;5049857;28;20495;-73
2021/04/07 11:54:54;;;;;;;3.10;1.47;;;;;;;;;;5049849;28;20421;-73
2021/04/07 11:57:20;;;;;;;2.23;1.37;;;;;;;;;;5043098;28;20418;-73
2021/04/07 11:59:46;;;;;;;1.90;1.50;;;;;;;;;;5050875;28;21283;-73
2021/04/07 12:02:12;;;;;;;7.50;1.83;;;;;;;;;;5051269;28;20492;-73
2021/04/07 12:04:38;;;;;;;4.50;1.77;;;;;;;;;;5045563;28;20434;-73
2021/04/07 12:07:04;;;;;;;4.23;1.90;;;;;;;;;;5049990;28;20973;-73
2021/04/07 12:09:30;;;;;;;5.83;2.10;;;;;;;;;;5050212;28;20920;-75
2021/04/07 12:11:56;;;;;;;2.40;1.80;;;;;;;;;;5050960;28;20465;-74
2021/04/07 12:14:22;;;;;;;3.40;1.93;;;;;;;;;;5049423;28;20484;-73
2021/04/07 12:16:48;;;;;;;2.57;1.70;;;;;;;;;;5047441;28;20813;-74
2021/04/07 12:19:15;;;;;;;4.23;1.70;;;;;;;;;;5047277;28;20449;-73
2021/04/07 12:21:43;;;;;;;9.60;1.50;;;;;;;;;;5031712;28;20833;-74
2021/04/07 12:24:09;;;;;;;4.70;1.57;;;;;;;;;;5049987;28;20539;-73
2021/04/07 12:26:36;;;;;;;5.73;1.87;;;;;;;;;;5046121;28;20425;-74
2021/04/07 12:29:02;;;;;;;3.90;1.50;;;;;;;;;;5048243;28;20811;-73
2021/04/07 12:31:28;;;;;;;3.40;2.00;;;;;;;;;;5042912;28;20468;-74
2021/04/07 12:33:56;;;;;;;6.40;2.00;;;;;;;;;;5044642;28;20442;-73
2021/04/07 12:36:26;;;;;;;3.03;1.70;;;;;;;;;;5050505;28;20429;-73
2021/04/07 12:38:52;;;;;;;4.80;1.97;;;;;;;;;;5048361;28;20468;-73
2021/04/07 12:41:26;;;;;;;2.00;1.43;;;;;;;;;;5045012;28;20438;-73
2021/04/07 12:43:52;;;;;;;2.60;1.70;;;;;;;;;;5051643;28;21871;-73
2021/04/07 12:46:18;;;;;;;2.53;1.80;;;;;;;;;;5049047;28;20416;-75
2021/04/07 12:48:47;;;;;;;2.40;1.93;;;;;;;;;;5050270;28;20433;-73
2021/04/07 12:51:13;;;;;;;2.83;2.00;;;;;;;;;;5049319;28;20458;-73
2021/04/07 12:53:39;;;;;;;2.83;1.90;;;;;;;;;;5049486;28;20907;-73
2021/04/07 12:56:07;;;;;;;4.13;1.97;;;;;;;;;;5047476;28;20425;-72
2021/04/07 12:58:33;;;;;;;2.53;1.77;;;;;;;;;;5050638;28;20464;-72
2021/04/07 13:00:59;;;;;;;4.17;1.90;;;;;;;;;;5051511;28;20439;-72
2021/04/07 13:03:25;;;;;;;3.70;2.03;;;;;;;;;;5053545;28;20423;-72
2021/04/07 13:05:51;;;;;;;2.63;1.90;;;;;;;;;;5051077;28;20841;-72
2021/04/07 13:08:17;;;;;;;3.40;1.77;;;;;;;;;;5054127;28;20424;-74
2021/04/07 13:10:43;;;;;;;8.53;2.30;;;;;;;;;;5053752;28;20463;-73
2021/04/07 13:13:09;;;;;;;3.33;1.70;;;;;;;;;;5052106;28;21250;-72
2021/04/07 13:15:35;;;;;;;2.50;1.90;;;;;;;;;;5054068;28;20432;-72
2021/04/07 13:18:02;;;;;;;2.27;1.67;;;;;;;;;;5034419;28;20412;-73
2021/04/07 13:20:30;;;;;;;3.90;2.17;;;;;;;;;;5054884;28;20469;-71
2021/04/07 13:22:56;;;;;;;2.70;1.67;;;;;;;;;;5053690;28;20423;-75
2021/04/07 13:25:22;;;;;;;4.40;1.90;;;;;;;;;;5054157;28;20515;-71
2021/04/07 13:27:48;;;;;;;2.97;2.37;;;;;;;;;;5036545;28;20428;-72
2021/04/07 13:30:15;;;;;;;4.63;2.00;;;;;;;;;;5047209;28;20428;-73
2021/04/07 13:33:09;;;;;;;5.47;2.10;;;;;;;;;;5051594;28;20434;-73
2021/04/07 13:35:33;;;;;;;2.80;1.70;;;;;;;;;;5054475;28;20430;-72
2021/04/07 13:38:04;;;;;;;2.93;2.03;;;;;;;;;;5028173;28;20423;-75
2021/04/07 13:40:49;;;;;;;4.57;2.60;;;;;;;;;;5050235;28;20421;-72
2021/04/07 13:43:15;;;;;;;2.60;1.90;;;;;;;;;;5051018;28;20431;-74
2021/04/07 13:45:41;;;;;;;3.13;2.03;;;;;;;;;;5035668;28;20831;-73
2021/04/07 13:48:14;;;;;;;2.97;1.60;;;;;;;;;;5036383;28;20927;-73
2021/04/07 13:50:40;;;;;;;2.53;1.50;;;;;;;;;;5051857;28;20447;-73
2021/04/07 13:53:07;;;;;;;9.73;2.20;;;;;;;;;;5052984;28;20414;-73
2021/04/07 13:55:34;;;;;;;1.97;1.40;;;;;;;;;;5054109;28;20411;-71
2021/04/07 13:58:00;;;;;;;2.63;1.67;;;;;;;;;;5048374;28;20430;-72
2021/04/07 14:00:27;;;;;;;2.90;1.87;;;;;;;;;;5053164;28;20522;-70
2021/04/07 14:02:53;;;;;;;2.00;1.60;;;;;;;;;;5049562;28;20411;-71
2021/04/07 14:05:19;;;;;;;7.57;1.73;;;;;;;;;;5046286;28;20447;-71
2021/04/07 14:07:45;;;;;;;2.63;1.70;;;;;;;;;;5052493;28;20422;-70
2021/04/07 14:10:14;;;;;;;4.00;1.90;;;;;;;;;;5034335;28;20417;-71
2021/04/07 14:12:43;;;;;;;3.93;2.10;;;;;;;;;;5052901;28;20496;-71
2021/04/07 14:15:10;;;;;;;2.60;1.63;;;;;;;;;;5052474;28;20422;-70
2021/04/07 14:17:36;;;;;;;5.97;1.47;;;;;;;;;;5051721;28;20423;-71
2021/04/07 14:20:04;;;;;;;2.43;1.37;;;;;;;;;;5052091;28;20543;-71
2021/04/07 14:22:30;;;;;;;2.87;2.00;;;;;;;;;;5053316;28;20497;-71
2021/04/07 14:24:56;;;;;;;5.33;1.90;;;;;;;;;;5035583;28;20988;-71
2021/04/07 14:27:23;;;;;;;3.93;1.93;;;;;;;;;;5053534;28;20411;-71
2021/04/07 14:29:49;;;;;;;4.70;1.50;;;;;;;;;;5053856;28;20423;-72
2021/04/07 14:32:15;;;;;;;12.50;2.27;;;;;;;;;;5054525;28;20426;-71
2021/04/07 14:34:41;;;;;;;7.90;1.70;;;;;;;;;;5053078;28;20519;-71
2021/04/07 14:37:07;;;;;;;4.70;1.70;;;;;;;;;;5036454;28;20876;-71
2021/04/07 14:39:34;;;;;;;4.00;2.33;;;;;;;;;;5053457;28;20496;-72
2021/04/07 14:42:00;;;;;;;3.80;1.87;;;;;;;;;;5054801;28;20935;-71
2021/04/07 14:44:26;;;;;;;5.90;1.60;;;;;;;;;;5053115;28;20473;-71
2021/04/07 14:46:53;;;;;;;4.50;1.57;;;;;;;;;;5054383;28;20396;-71